Time;durP1;ratioP1;P1;durP2;ratioP2;P2;SDS_P1;SDS_P2;PMS_P1;PMS_P2;Temp;Humidity;BMP_temperature;BMP_pressure;BME280_temperature;BME280_humidity;BME280_pressure;Samples;Min_cycle;Max_cycle;Signal;HPM_P1;HPM_P2
2023/03/30 00:01:10;;;;;;;7.17;2.60;;;13.30;71.70;;;;;;4970960;28;20489;-82
2023/03/30 00:03:43;;;;;;;5.90;2.60;;;13.30;71.70;;;;;;4969279;28;20968;-82
2023/03/30 00:06:13;;;;;;;7.70;2.43;;;13.30;71.70;;;;;;4970701;28;20459;-83
2023/03/30 00:08:41;;;;;;;7.97;2.80;;;13.30;71.60;;;;;;4975730;28;20485;-84
2023/03/30 00:11:12;;;;;;;7.00;3.10;;;13.30;71.60;;;;;;4972627;28;20977;-81
2023/03/30 00:13:40;;;;;;;5.90;2.53;;;13.30;71.70;;;;;;4972550;28;20462;-82
2023/03/30 00:16:10;;;;;;;10.10;2.60;;;13.30;71.70;;;;;;4968167;28;20566;-82
2023/03/30 00:18:39;;;;;;;6.13;2.40;;;13.30;71.70;;;;;;4974929;28;20471;-82
2023/03/30 00:21:09;;;;;;;6.83;2.47;;;13.40;71.70;;;;;;4974054;28;20668;-81
2023/03/30 00:23:38;;;;;;;6.30;2.70;;;13.50;71.60;;;;;;4989756;28;20512;-80
2023/03/30 00:26:07;;;;;;;10.07;2.70;;;13.50;71.60;;;;;;4973003;28;20510;-83
2023/03/30 00:28:35;;;;;;;6.10;2.60;;;13.50;71.50;;;;;;4986758;28;20517;-82
2023/03/30 00:31:03;;;;;;;7.87;3.10;;;13.50;71.40;;;;;;4966213;28;20482;-83
2023/03/30 00:33:31;;;;;;;8.60;2.70;;;13.50;71.30;;;;;;4971617;28;20872;-81
2023/03/30 00:36:15;;;;;;;9.03;2.70;;;13.60;71.30;;;;;;4972638;28;20775;-81
2023/03/30 00:38:44;;;;;;;9.10;3.17;;;13.60;71.20;;;;;;4987091;28;20746;-81
2023/03/30 00:41:12;;;;;;;9.20;3.17;;;13.70;71.10;;;;;;4987848;28;20458;-81
2023/03/30 00:43:57;;;;;;;9.43;2.90;;;13.70;71.10;;;;;;4972016;28;20508;-81
2023/03/30 00:46:25;;;;;;;6.57;2.40;;;13.80;71.10;;;;;;4992606;28;20469;-79
2023/03/30 00:48:56;;;;;;;9.27;3.10;;;13.80;71.10;;;;;;4992915;28;20497;-78
2023/03/30 00:51:27;;;;;;;7.53;2.97;;;13.80;71.00;;;;;;4989365;28;20449;-82
2023/03/30 00:54:01;;;;;;;8.33;3.10;;;13.90;71.00;;;;;;4988666;28;20553;-82
2023/03/30 00:56:30;;;;;;;13.07;3.63;;;13.80;71.10;;;;;;4975383;28;20988;-82
2023/03/30 00:59:00;;;;;;;8.50;2.50;;;13.90;71.00;;;;;;4993656;28;20466;-80
2023/03/30 01:01:37;;;;;;;9.70;2.70;;;13.90;71.00;;;;;;4989629;28;21273;-82
2023/03/30 01:04:07;;;;;;;7.83;3.00;;;14.00;70.80;;;;;;4974779;28;21138;-83
2023/03/30 01:06:38;;;;;;;9.93;2.60;;;14.00;70.80;;;;;;4976550;28;20710;-82
2023/03/30 01:09:07;;;;;;;9.07;2.80;;;14.00;70.80;;;;;;4992335;28;20464;-82
2023/03/30 01:11:36;;;;;;;11.60;2.93;;;14.10;70.80;;;;;;4972968;28;20494;-81
2023/03/30 01:14:07;;;;;;;12.57;3.43;;;14.10;70.70;;;;;;4976913;28;20464;-83
2023/03/30 01:16:44;;;;;;;11.57;3.37;;;14.10;70.60;;;;;;4990928;28;20470;-82
2023/03/30 01:19:34;;;;;;;10.60;3.07;;;14.10;70.60;;;;;;4974542;28;20473;-83
2023/03/30 01:22:25;;;;;;;11.60;3.63;;;14.10;70.60;;;;;;4977640;28;20572;-81
2023/03/30 01:25:35;;;;;;;7.83;2.60;;;14.10;70.40;;;;;;4960482;28;20476;-82
2023/03/30 01:28:42;;;;;;;7.60;3.20;;;14.10;70.30;;;;;;4922141;28;20562;-82
2023/03/30 01:31:38;;;;;;;9.30;2.87;;;14.10;70.40;;;;;;4968892;28;20517;-84
2023/03/30 01:34:35;;;;;;;9.80;3.23;;;14.10;70.40;;;;;;4971061;28;20476;-81
2023/03/30 01:37:31;;;;;;;9.43;3.10;;;14.10;70.40;;;;;;4988631;28;20481;-82
2023/03/30 01:40:08;;;;;;;12.77;2.90;;;14.10;70.40;;;;;;4972762;28;21413;-79
2023/03/30 01:42:41;;;;;;;10.17;3.37;;;14.10;70.60;;;;;;4985970;28;20444;-81
2023/03/30 01:45:15;;;;;;;12.90;3.30;;;14.10;70.60;;;;;;4970180;28;20470;-80
2023/03/30 01:47:52;;;;;;;9.70;3.07;;;14.10;70.80;;;;;;4975229;28;20493;-84
2023/03/30 01:50:25;;;;;;;5.83;2.40;;;14.10;70.80;;;;;;4977535;28;20526;-84
2023/03/30 01:53:01;;;;;;;9.47;3.20;;;14.20;70.70;;;;;;4974857;28;20487;-80
2023/03/30 01:55:34;;;;;;;7.93;2.80;;;14.20;70.50;;;;;;4973568;28;20458;-82
2023/03/30 01:58:07;;;;;;;11.50;3.00;;;14.30;70.40;;;;;;4969810;28;20490;-81
2023/03/30 02:00:39;;;;;;;9.33;3.20;;;14.20;70.50;;;;;;4987708;28;20466;-81
2023/03/30 02:03:11;;;;;;;10.77;3.60;;;14.30;70.30;;;;;;4971955;28;20512;-81
2023/03/30 02:05:41;;;;;;;9.93;3.10;;;14.20;70.30;;;;;;4976926;28;20461;-81
2023/03/30 02:08:14;;;;;;;9.60;3.50;;;14.20;70.30;;;;;;4990964;28;20533;-82
2023/03/30 02:10:45;;;;;;;9.50;3.80;;;14.20;70.20;;;;;;4974175;28;20513;-85
2023/03/30 02:13:15;;;;;;;13.10;3.00;;;14.20;70.30;;;;;;4975309;28;20489;-82
2023/03/30 02:15:48;;;;;;;15.60;3.10;;;14.20;70.40;;;;;;4990501;28;20459;-83
2023/03/30 02:18:24;;;;;;;10.97;3.43;;;14.10;70.70;;;;;;4976475;28;20544;-82
2023/03/30 02:20:57;;;;;;;10.40;3.00;;;14.10;70.80;;;;;;4984299;28;20479;-79
2023/03/30 02:23:31;;;;;;;15.93;3.13;;;14.20;70.70;;;;;;4974363;28;20470;-83
2023/03/30 02:26:00;;;;;;;12.03;3.50;;;14.20;70.50;;;;;;4976897;28;20717;-81
2023/03/30 02:28:28;;;;;;;14.90;3.60;;;14.20;70.60;;;;;;4990106;28;20618;-81
2023/03/30 02:30:57;;;;;;;16.73;4.87;;;14.30;70.40;;;;;;4974428;28;20490;-83
2023/03/30 02:33:36;;;;;;;14.17;3.53;;;14.30;70.40;;;;;;4987104;28;20477;-81
2023/03/30 02:36:20;;;;;;;19.23;4.33;;;14.30;70.20;;;;;;4988960;28;20451;-83
2023/03/30 02:39:00;;;;;;;9.43;3.30;;;14.30;70.30;;;;;;4991329;28;20551;-84
2023/03/30 02:42:05;;;;;;;21.10;3.40;;;14.40;70.20;;;;;;4989910;28;20462;-83
2023/03/30 02:44:39;;;;;;;15.57;3.47;;;14.30;70.40;;;;;;4976352;28;20548;-82
2023/03/30 02:47:13;;;;;;;15.77;3.20;;;14.40;70.40;;;;;;4975322;28;20485;-84
2023/03/30 02:50:00;;;;;;;13.60;3.97;;;14.40;70.20;;;;;;4972151;28;20464;-83
2023/03/30 02:52:45;;;;;;;13.37;3.03;;;14.50;70.10;;;;;;4973639;28;20490;-84
2023/03/30 02:55:21;;;;;;;15.67;3.30;;;14.50;70.10;;;;;;4971014;28;20459;-83
2023/03/30 02:58:17;;;;;;;11.50;4.00;;;14.50;70.10;;;;;;4987867;28;20489;-81
2023/03/30 03:01:14;;;;;;;13.50;3.27;;;14.60;70.00;;;;;;4972921;28;20487;-80
2023/03/30 03:04:03;;;;;;;12.43;2.80;;;14.50;70.10;;;;;;4976665;28;20488;-82
2023/03/30 03:06:42;;;;;;;16.23;3.47;;;14.60;70.00;;;;;;4988083;28;20463;-83
2023/03/30 03:09:14;;;;;;;11.63;3.10;;;14.60;70.00;;;;;;4972454;28;20537;-80
2023/03/30 03:11:43;;;;;;;12.17;3.20;;;14.60;70.00;;;;;;4988566;28;20526;-82
2023/03/30 03:14:19;;;;;;;15.53;3.30;;;14.60;70.00;;;;;;4974311;28;20466;-84
2023/03/30 03:16:48;;;;;;;15.10;3.43;;;14.60;70.00;;;;;;4973904;28;20467;-82
2023/03/30 03:19:18;;;;;;;8.70;2.77;;;14.60;70.00;;;;;;4990296;28;20521;-83
2023/03/30 03:21:51;;;;;;;11.23;3.00;;;14.70;70.00;;;;;;4967419;28;20995;-83
2023/03/30 03:24:21;;;;;;;12.80;4.17;;;14.70;69.90;;;;;;4992693;28;20464;-82
2023/03/30 03:27:15;;;;;;;12.60;3.67;;;14.70;69.90;;;;;;4965739;28;20521;-82
2023/03/30 03:30:08;;;;;;;13.13;3.03;;;14.70;69.90;;;;;;4995316;28;20465;-82
2023/03/30 03:32:43;;;;;;;17.30;4.00;;;14.70;70.00;;;;;;4972398;28;21015;-86
2023/03/30 03:35:12;;;;;;;17.00;3.50;;;14.70;70.30;;;;;;4989078;28;20957;-82
2023/03/30 03:37:42;;;;;;;8.93;2.83;;;14.70;70.10;;;;;;4974289;28;20520;-83
2023/03/30 03:40:11;;;;;;;10.93;4.03;;;14.70;70.10;;;;;;4986321;28;20464;-80
2023/03/30 03:42:42;;;;;;;14.77;2.90;;;14.80;70.10;;;;;;4975619;28;20860;-83
2023/03/30 03:45:15;;;;;;;14.53;3.70;;;14.70;70.50;;;;;;4976062;28;20462;-81
2023/03/30 03:48:00;;;;;;;13.07;3.10;;;14.60;70.50;;;;;;4976402;28;20479;-87
2023/03/30 03:50:41;;;;;;;12.93;3.10;;;14.70;70.50;;;;;;4987966;28;20726;-85
2023/03/30 03:53:10;;;;;;;11.53;3.37;;;14.70;70.60;;;;;;4988092;28;20508;-84
2023/03/30 03:55:38;;;;;;;16.50;4.27;;;14.70;70.70;;;;;;4991716;28;20465;-85
2023/03/30 03:58:06;;;;;;;10.40;3.27;;;14.70;70.80;;;;;;4973420;28;20482;-82
2023/03/30 04:00:37;;;;;;;12.23;3.50;;;14.70;70.90;;;;;;4967438;28;20477;-82
2023/03/30 04:03:06;;;;;;;13.53;3.83;;;14.60;71.10;;;;;;4991870;28;20515;-83
2023/03/30 04:05:35;;;;;;;10.13;3.63;;;14.60;71.30;;;;;;4977597;28;20692;-79
2023/03/30 04:08:05;;;;;;;12.57;3.93;;;14.60;71.50;;;;;;4985535;28;20554;-81
2023/03/30 04:10:33;;;;;;;17.40;3.87;;;14.60;71.60;;;;;;4971288;28;20467;-83
2023/03/30 04:13:20;;;;;;;15.00;4.07;;;14.60;71.90;;;;;;4974728;28;20463;-82
2023/03/30 04:16:00;;;;;;;16.67;3.47;;;14.60;72.00;;;;;;4975895;28;20459;-83
2023/03/30 04:18:37;;;;;;;12.10;3.60;;;14.60;72.20;;;;;;4989734;28;20512;-82
2023/03/30 04:21:20;;;;;;;16.67;3.90;;;14.50;72.40;;;;;;4975343;28;20562;-84
2023/03/30 04:23:57;;;;;;;13.97;4.00;;;14.50;72.70;;;;;;4970256;28;20461;-83
2023/03/30 04:26:47;;;;;;;14.07;3.67;;;14.60;72.70;;;;;;4974818;28;20445;-81
2023/03/30 04:29:34;;;;;;;20.67;4.50;;;14.50;72.80;;;;;;4976149;28;20451;-82
2023/03/30 04:32:22;;;;;;;14.83;3.43;;;14.60;73.00;;;;;;4972482;28;20533;-80
2023/03/30 04:35:18;;;;;;;11.10;3.57;;;14.50;73.10;;;;;;4969817;28;20525;-79
2023/03/30 04:38:21;;;;;;;19.43;4.20;;;14.50;73.30;;;;;;4964976;28;20489;-83
2023/03/30 04:41:08;;;;;;;19.00;3.57;;;14.50;73.40;;;;;;4983626;28;20458;-86
2023/03/30 04:43:56;;;;;;;15.37;4.20;;;14.40;73.50;;;;;;4975625;28;20459;-83
2023/03/30 04:46:33;;;;;;;12.70;3.67;;;14.40;73.60;;;;;;4972072;28;21122;-83
2023/03/30 04:49:12;;;;;;;13.37;3.60;;;14.40;73.70;;;;;;4974119;28;20565;-83
2023/03/30 04:52:07;;;;;;;18.07;4.40;;;14.40;73.80;;;;;;4948137;28;20474;-82
2023/03/30 04:54:55;;;;;;;12.60;3.40;;;14.40;73.80;;;;;;4975505;28;20570;-82
2023/03/30 04:57:43;;;;;;;20.17;4.47;;;14.40;74.00;;;;;;4973391;28;20559;-82
2023/03/30 05:00:30;;;;;;;18.80;4.60;;;14.40;74.10;;;;;;4975920;28;20485;-84
2023/03/30 05:03:33;;;;;;;17.60;3.70;;;14.40;74.20;;;;;;4947436;28;20467;-83
2023/03/30 05:06:13;;;;;;;16.17;4.30;;;14.40;74.40;;;;;;4970261;28;20474;-83
2023/03/30 05:08:52;;;;;;;14.10;3.97;;;14.40;74.40;;;;;;4975690;28;20462;-83
2023/03/30 05:11:43;;;;;;;25.43;3.80;;;14.40;74.40;;;;;;4976886;28;20485;-82
2023/03/30 05:14:20;;;;;;;14.57;3.40;;;14.40;74.60;;;;;;4972964;28;20469;-82
2023/03/30 05:17:00;;;;;;;16.03;4.00;;;14.50;74.60;;;;;;4986824;28;20462;-84
2023/03/30 05:19:38;;;;;;;18.30;4.07;;;14.50;74.70;;;;;;4983554;28;20487;-81
2023/03/30 05:22:22;;;;;;;15.50;3.87;;;14.50;74.80;;;;;;4988761;28;20495;-82
2023/03/30 05:25:14;;;;;;;20.47;5.03;;;14.50;74.80;;;;;;4953378;28;20495;-82
2023/03/30 05:28:02;;;;;;;27.40;4.30;;;14.50;74.90;;;;;;4972062;28;20474;-82
2023/03/30 05:30:53;;;;;;;20.67;4.23;;;14.50;75.10;;;;;;4992781;28;20559;-82
2023/03/30 05:33:41;;;;;;;26.13;7.50;;;14.50;75.30;;;;;;4993886;28;20467;-82
2023/03/30 05:36:26;;;;;;;28.53;7.70;;;14.50;75.30;;;;;;4980787;28;20463;-82
2023/03/30 05:39:16;;;;;;;15.93;6.00;;;14.50;75.30;;;;;;4977634;28;20486;-82
2023/03/30 05:41:55;;;;;;;16.50;5.83;;;14.50;75.40;;;;;;4990098;28;20629;-82
2023/03/30 05:44:39;;;;;;;18.93;4.70;;;14.40;75.50;;;;;;4975006;28;20469;-82
2023/03/30 05:47:27;;;;;;;21.60;6.60;;;14.30;75.80;;;;;;4978999;28;20967;-82
2023/03/30 05:50:06;;;;;;;15.93;6.03;;;14.30;75.70;;;;;;4975160;28;20438;-82
2023/03/30 05:52:54;;;;;;;23.63;6.63;;;14.40;75.70;;;;;;4973683;28;20467;-82
2023/03/30 05:55:45;;;;;;;22.07;6.63;;;14.30;75.80;;;;;;4974033;28;20449;-83
2023/03/30 05:58:32;;;;;;;17.83;6.93;;;14.30;75.80;;;;;;4973502;28;20485;-82
2023/03/30 06:01:08;;;;;;;18.13;5.83;;;14.30;75.80;;;;;;4986528;28;20481;-81
2023/03/30 06:03:40;;;;;;;25.27;7.10;;;14.30;76.00;;;;;;4991632;28;20537;-83
2023/03/30 06:06:11;;;;;;;37.17;18.87;;;14.30;75.90;;;;;;4994285;28;20463;-83
2023/03/30 06:08:41;;;;;;;43.70;15.70;;;14.30;76.00;;;;;;4998537;28;20458;-86
2023/03/30 06:11:15;;;;;;;28.00;8.30;;;14.30;75.80;;;;;;4989633;28;20475;-84
2023/03/30 06:14:03;;;;;;;16.47;4.43;;;14.30;75.90;;;;;;4976576;28;20502;-83
2023/03/30 06:16:31;;;;;;;19.10;5.50;;;14.30;75.90;;;;;;4993283;28;20554;-85
2023/03/30 06:19:00;;;;;;;18.40;4.00;;;14.20;75.90;;;;;;4977714;28;20509;-85
2023/03/30 06:21:29;;;;;;;16.07;4.33;;;14.20;76.00;;;;;;4976871;28;20458;-85
2023/03/30 06:24:18;;;;;;;14.83;4.70;;;14.20;76.00;;;;;;4977682;28;20710;-84
2023/03/30 06:26:49;;;;;;;18.43;4.90;;;14.20;76.00;;;;;;4996865;28;20473;-83
2023/03/30 06:29:17;;;;;;;23.40;5.60;;;14.20;76.10;;;;;;4976824;28;20944;-87
2023/03/30 06:31:46;;;;;;;16.53;5.00;;;14.10;76.20;;;;;;4981847;28;20471;-85
2023/03/30 06:34:48;;;;;;;19.40;6.10;;;14.10;76.30;;;;;;4974780;28;20541;-81
2023/03/30 06:37:18;;;;;;;19.73;5.10;;;14.00;76.50;;;;;;4992009;28;20963;-82
2023/03/30 06:39:46;;;;;;;23.77;6.90;;;14.00;76.60;;;;;;4976519;28;20462;-85
2023/03/30 06:42:16;;;;;;;19.93;5.63;;;14.00;76.70;;;;;;4975930;28;20448;-82
2023/03/30 06:44:58;;;;;;;24.33;6.30;;;14.00;76.80;;;;;;4990297;28;21020;-83
2023/03/30 06:47:26;;;;;;;20.87;5.67;;;14.00;76.90;;;;;;4989053;28;20465;-84
2023/03/30 06:49:54;;;;;;;16.60;4.73;;;13.90;77.10;;;;;;4975979;28;20499;-84
2023/03/30 06:52:42;;;;;;;20.13;5.23;;;13.90;77.20;;;;;;4975009;28;20770;-84
2023/03/30 06:55:10;;;;;;;20.20;5.47;;;13.90;77.40;;;;;;4979988;28;21171;-84
2023/03/30 06:57:40;;;;;;;19.40;5.27;;;13.90;77.60;;;;;;4974509;28;20579;-81
2023/03/30 07:00:13;;;;;;;17.90;4.83;;;13.80;77.80;;;;;;4973368;28;20474;-81
2023/03/30 07:03:00;;;;;;;20.13;5.60;;;13.80;77.80;;;;;;4968068;28;20484;-81
2023/03/30 07:05:34;;;;;;;20.97;5.20;;;13.80;77.90;;;;;;4973539;28;20449;-80
2023/03/30 07:08:25;;;;;;;14.30;5.10;;;13.80;78.10;;;;;;4975672;28;20468;-82
2023/03/30 07:10:55;;;;;;;15.63;4.53;;;13.80;78.20;;;;;;4976237;28;20486;-82
2023/03/30 07:13:28;;;;;;;62.30;34.87;;;13.80;78.20;;;;;;4992860;28;20458;-81
2023/03/30 07:15:56;;;;;;;49.13;22.53;;;13.80;78.40;;;;;;4983624;28;20460;-83
2023/03/30 07:18:24;;;;;;;40.60;16.03;;;13.80;78.50;;;;;;4978303;28;20999;-86
2023/03/30 07:20:53;;;;;;;17.87;7.63;;;13.80;78.70;;;;;;4992306;28;20497;-81
2023/03/30 07:23:26;;;;;;;23.40;7.93;;;13.80;78.90;;;;;;4989219;28;20475;-83
2023/03/30 07:25:54;;;;;;;20.50;6.53;;;13.70;79.20;;;;;;4987874;28;20484;-83
2023/03/30 07:28:29;;;;;;;18.40;5.03;;;13.70;79.50;;;;;;4987055;28;20515;-83
2023/03/30 07:31:04;;;;;;;19.73;5.47;;;13.70;79.60;;;;;;4974624;28;20479;-86
2023/03/30 07:33:35;;;;;;;15.33;4.77;;;13.70;79.80;;;;;;4973971;28;20549;-84
2023/03/30 07:36:06;;;;;;;22.23;7.30;;;13.70;80.00;;;;;;4974682;28;20990;-84
2023/03/30 07:38:34;;;;;;;14.90;4.87;;;13.70;80.10;;;;;;4993656;28;20469;-83
2023/03/30 07:41:07;;;;;;;19.60;5.13;;;13.70;80.20;;;;;;4991450;28;20987;-83
2023/03/30 07:43:39;;;;;;;21.60;5.07;;;13.70;80.40;;;;;;4988598;28;20466;-84
2023/03/30 07:46:08;;;;;;;15.27;4.90;;;13.70;80.40;;;;;;4988714;28;20484;-82
2023/03/30 07:48:39;;;;;;;20.07;5.13;;;13.70;80.50;;;;;;4990132;28;20573;-82
2023/03/30 07:51:08;;;;;;;29.70;13.77;;;13.70;80.50;;;;;;4989205;28;20470;-84
2023/03/30 07:53:43;;;;;;;18.17;6.70;;;13.70;80.70;;;;;;4971748;28;20470;-84
2023/03/30 07:56:19;;;;;;;27.53;6.60;;;13.70;80.80;;;;;;4988578;28;20485;-83
2023/03/30 07:58:52;;;;;;;19.30;5.63;;;13.80;80.80;;;;;;4988652;28;20476;-85
2023/03/30 08:01:25;;;;;;;13.70;4.60;;;13.80;81.10;;;;;;4989041;28;20478;-81
2023/03/30 08:04:12;;;;;;;16.07;5.40;;;13.80;81.10;;;;;;4974739;28;20465;-83
2023/03/30 08:06:41;;;;;;;16.90;4.87;;;13.80;81.10;;;;;;4991829;28;20456;-83
2023/03/30 08:09:09;;;;;;;13.53;5.10;;;13.80;81.10;;;;;;4971591;28;21075;-84
2023/03/30 08:11:38;;;;;;;13.60;4.50;;;13.90;81.10;;;;;;4973725;28;20470;-83
2023/03/30 08:14:07;;;;;;;12.77;4.60;;;13.90;81.30;;;;;;4971786;28;20518;-83
2023/03/30 08:16:35;;;;;;;16.33;4.40;;;13.90;81.40;;;;;;4989657;28;20469;-84
2023/03/30 08:19:03;;;;;;;21.00;4.63;;;13.90;81.40;;;;;;4990858;28;20474;-85
2023/03/30 08:21:31;;;;;;;15.83;5.47;;;13.90;81.50;;;;;;4974657;28;20522;-83
2023/03/30 08:23:59;;;;;;;14.67;4.90;;;13.90;81.50;;;;;;4973718;28;20450;-86
2023/03/30 08:26:29;;;;;;;22.93;4.60;;;14.00;81.50;;;;;;4971715;28;20458;-83
2023/03/30 08:28:58;;;;;;;12.80;5.17;;;14.00;81.50;;;;;;4974962;28;20451;-82
2023/03/30 08:31:27;;;;;;;23.50;5.40;;;14.00;81.60;;;;;;4973806;28;20476;-84
2023/03/30 08:33:55;;;;;;;21.87;4.57;;;13.90;81.80;;;;;;4974774;28;21034;-83
2023/03/30 08:36:23;;;;;;;20.30;5.83;;;14.00;81.90;;;;;;4975535;28;20470;-82
2023/03/30 08:38:51;;;;;;;16.67;4.90;;;14.00;81.80;;;;;;4972673;28;20457;-85
2023/03/30 08:41:45;;;;;;;16.90;4.87;;;14.00;81.90;;;;;;4974171;28;20500;-81
2023/03/30 08:44:25;;;;;;;15.97;4.90;;;14.10;81.90;;;;;;4974479;28;20458;-83
2023/03/30 08:46:55;;;;;;;10.60;4.93;;;14.00;81.90;;;;;;4976200;28;20464;-80
2023/03/30 08:49:26;;;;;;;15.67;4.33;;;13.90;82.40;;;;;;4971530;28;20480;-84
2023/03/30 08:51:55;;;;;;;11.47;4.93;;;13.90;82.50;;;;;;4975623;28;20465;-81
2023/03/30 08:54:24;;;;;;;10.13;4.40;;;13.90;82.60;;;;;;4989112;28;20458;-85
2023/03/30 08:57:00;;;;;;;14.47;4.50;;;13.90;82.60;;;;;;4986611;28;20510;-82
2023/03/30 08:59:39;;;;;;;13.53;4.97;;;14.00;82.50;;;;;;4968879;28;20438;-83
2023/03/30 09:02:17;;;;;;;16.90;5.53;;;14.10;82.40;;;;;;4975729;28;20488;-82
2023/03/30 09:04:56;;;;;;;18.50;5.87;;;14.10;82.50;;;;;;4976487;28;20452;-81
2023/03/30 09:07:27;;;;;;;13.63;5.47;;;14.20;82.50;;;;;;4978811;28;20552;-83
2023/03/30 09:09:57;;;;;;;20.33;5.43;;;14.20;82.50;;;;;;4992255;28;20521;-85
2023/03/30 09:12:36;;;;;;;15.70;4.93;;;14.20;82.40;;;;;;4977340;28;21011;-84
2023/03/30 09:15:08;;;;;;;13.87;4.90;;;14.20;82.70;;;;;;4992182;28;20457;-81
2023/03/30 09:17:42;;;;;;;15.77;5.50;;;14.20;82.70;;;;;;4977840;28;20517;-85
2023/03/30 09:20:15;;;;;;;13.83;5.33;;;14.20;82.80;;;;;;4989696;28;20472;-86
2023/03/30 09:22:45;;;;;;;15.93;5.10;;;14.20;82.90;;;;;;4994126;28;20977;-84
2023/03/30 09:25:16;;;;;;;12.73;4.83;;;14.20;82.70;;;;;;4978514;28;20452;-82
2023/03/30 09:27:52;;;;;;;16.43;6.10;;;14.20;82.80;;;;;;4990277;28;20510;-82
2023/03/30 09:30:24;;;;;;;12.00;4.53;;;14.20;82.80;;;;;;4978022;28;20458;-84
2023/03/30 09:32:59;;;;;;;15.30;6.00;;;14.20;82.80;;;;;;4969734;28;20485;-84
2023/03/30 09:35:36;;;;;;;14.03;5.23;;;14.30;82.70;;;;;;4982540;28;20905;-82
2023/03/30 09:38:04;;;;;;;11.50;4.53;;;14.30;82.70;;;;;;4970616;28;20988;-84
2023/03/30 09:40:53;;;;;;;11.87;5.97;;;14.30;82.70;;;;;;4972438;28;20494;-82
2023/03/30 09:43:32;;;;;;;10.90;4.83;;;14.20;82.80;;;;;;4975263;28;20601;-84
2023/03/30 09:46:02;;;;;;;10.20;5.00;;;14.30;82.70;;;;;;4976083;28;20457;-84
2023/03/30 09:48:38;;;;;;;13.53;5.47;;;14.30;82.70;;;;;;4991896;28;20768;-84
2023/03/30 09:51:19;;;;;;;9.80;4.60;;;14.40;82.60;;;;;;4975550;28;20454;-86
2023/03/30 09:53:50;;;;;;;12.60;4.90;;;14.40;82.60;;;;;;4992323;28;20458;-85
2023/03/30 09:56:27;;;;;;;11.47;4.80;;;14.30;82.80;;;;;;4972785;28;20460;-84
2023/03/30 09:58:56;;;;;;;13.23;4.97;;;14.30;82.90;;;;;;4992503;28;20849;-85
2023/03/30 10:01:37;;;;;;;12.53;4.70;;;14.30;82.90;;;;;;4976029;28;20501;-86
2023/03/30 10:04:09;;;;;;;12.30;5.60;;;14.40;82.80;;;;;;4972185;28;20537;-84
2023/03/30 10:06:45;;;;;;;10.20;4.83;;;14.50;82.90;;;;;;4990459;28;20469;-84
2023/03/30 10:09:14;;;;;;;13.37;5.10;;;14.50;83.00;;;;;;4973932;28;21118;-83
2023/03/30 10:11:45;;;;;;;13.10;5.17;;;14.50;83.10;;;;;;4976587;28;20458;-84
2023/03/30 10:14:27;;;;;;;11.00;4.67;;;14.50;83.30;;;;;;4978423;28;20513;-84
2023/03/30 10:16:57;;;;;;;10.00;4.70;;;14.60;83.20;;;;;;4975581;28;20638;-87
2023/03/30 10:19:26;;;;;;;9.90;4.70;;;14.60;83.30;;;;;;4973068;28;20481;-80
2023/03/30 10:21:56;;;;;;;11.73;5.37;;;14.70;83.00;;;;;;4976089;28;20743;-87
2023/03/30 10:24:27;;;;;;;12.13;4.73;;;14.70;83.00;;;;;;4977608;28;20466;-84
2023/03/30 10:26:58;;;;;;;11.23;4.63;;;14.80;83.00;;;;;;4992348;28;20464;-83
2023/03/30 10:29:29;;;;;;;11.73;4.00;;;14.80;82.80;;;;;;4972492;28;20458;-83
2023/03/30 10:32:00;;;;;;;11.30;4.27;;;14.80;82.80;;;;;;4978092;28;20492;-82
2023/03/30 10:34:37;;;;;;;10.40;4.10;;;14.80;82.70;;;;;;4972608;28;20455;-84
2023/03/30 10:37:09;;;;;;;7.77;3.80;;;14.90;82.70;;;;;;4975477;28;20466;-81
2023/03/30 10:39:40;;;;;;;11.10;4.20;;;14.90;82.60;;;;;;4972894;28;20527;-83
2023/03/30 10:42:15;;;;;;;10.03;3.77;;;15.00;82.50;;;;;;4973401;28;20765;-83
2023/03/30 10:44:47;;;;;;;10.83;3.40;;;15.00;82.40;;;;;;4977432;28;20465;-82
2023/03/30 10:47:35;;;;;;;17.33;4.30;;;15.00;82.30;;;;;;4973489;28;20466;-82
2023/03/30 10:50:14;;;;;;;9.80;4.13;;;15.10;82.00;;;;;;4992821;28;20965;-85
2023/03/30 10:52:52;;;;;;;9.33;3.60;;;15.10;81.80;;;;;;4972061;28;20469;-83
2023/03/30 10:55:32;;;;;;;6.40;3.70;;;15.10;81.60;;;;;;4991545;28;20455;-80
2023/03/30 10:58:10;;;;;;;9.80;3.83;;;15.20;81.40;;;;;;4973167;28;20467;-84
2023/03/30 11:00:51;;;;;;;9.10;3.40;;;15.20;81.30;;;;;;4975311;28;20744;-85
2023/03/30 11:03:25;;;;;;;10.63;3.33;;;15.20;81.30;;;;;;4990914;28;20455;-81
2023/03/30 11:05:59;;;;;;;9.40;4.17;;;15.20;81.10;;;;;;4976448;28;20691;-81
2023/03/30 11:08:31;;;;;;;8.13;3.60;;;15.30;80.80;;;;;;4990597;28;21156;-81
2023/03/30 11:11:00;;;;;;;8.07;3.53;;;15.30;80.50;;;;;;4991854;28;20463;-86
2023/03/30 11:13:31;;;;;;;9.93;3.97;;;15.30;80.30;;;;;;4991675;28;20608;-80
2023/03/30 11:16:04;;;;;;;8.20;3.33;;;15.40;80.10;;;;;;4970317;28;20463;-82
2023/03/30 11:18:40;;;;;;;12.80;4.23;;;15.40;80.00;;;;;;4990801;28;20471;-87
2023/03/30 11:21:14;;;;;;;7.40;3.70;;;15.50;80.00;;;;;;4974137;28;20468;-87
2023/03/30 11:23:45;;;;;;;12.70;3.50;;;15.50;79.70;;;;;;4976039;28;20988;-84
2023/03/30 11:26:18;;;;;;;12.97;3.93;;;15.60;79.40;;;;;;4972218;28;20456;-82
2023/03/30 11:29:03;;;;;;;10.13;4.00;;;15.50;79.50;;;;;;4977183;28;20656;-81
2023/03/30 11:31:47;;;;;;;8.40;3.73;;;15.50;79.30;;;;;;4987513;28;20517;-82
2023/03/30 11:34:23;;;;;;;11.63;4.33;;;15.50;79.20;;;;;;4993549;28;20468;-84
2023/03/30 11:36:59;;;;;;;8.43;3.27;;;15.50;79.00;;;;;;4985082;28;20475;-83
2023/03/30 11:39:31;;;;;;;6.90;3.10;;;15.50;79.10;;;;;;4972007;28;21053;-83
2023/03/30 11:42:13;;;;;;;11.40;3.20;;;15.50;78.80;;;;;;4973390;28;20489;-85
2023/03/30 11:44:41;;;;;;;10.53;3.60;;;15.60;78.60;;;;;;4988023;28;20514;-87
2023/03/30 11:47:36;;;;;;;14.33;3.93;;;15.60;78.50;;;;;;4975719;28;20464;-82
2023/03/30 11:50:22;;;;;;;7.90;3.60;;;15.70;78.20;;;;;;4972616;28;21001;-83
2023/03/30 11:52:59;;;;;;;6.27;3.07;;;15.70;78.00;;;;;;4977672;28;20465;-81
2023/03/30 11:55:47;;;;;;;11.53;3.40;;;15.60;78.10;;;;;;4972121;28;20490;-81
2023/03/30 11:58:24;;;;;;;8.07;3.77;;;15.60;78.10;;;;;;4975333;28;20493;-87
2023/03/30 12:01:16;;;;;;;10.10;3.90;;;15.70;77.90;;;;;;4973969;28;20648;-83
2023/03/30 12:03:47;;;;;;;8.97;3.30;;;15.70;77.70;;;;;;4981114;28;20491;-85
2023/03/30 12:06:30;;;;;;;7.40;2.57;;;15.80;77.40;;;;;;4971964;28;20450;-86
2023/03/30 12:09:15;;;;;;;11.40;3.40;;;15.80;77.60;;;;;;4974979;28;20484;-84
2023/03/30 12:11:48;;;;;;;8.87;3.40;;;15.90;77.50;;;;;;4973992;28;20457;-84
2023/03/30 12:14:49;;;;;;;8.30;2.77;;;15.90;77.30;;;;;;4975230;28;20947;-85
2023/03/30 12:17:32;;;;;;;8.27;2.67;;;16.00;76.90;;;;;;4976473;28;20620;-87
2023/03/30 12:20:06;;;;;;;8.57;2.90;;;16.00;77.00;;;;;;4974181;28;20497;-80
2023/03/30 12:22:40;;;;;;;9.70;2.90;;;16.00;76.90;;;;;;4990681;28;20508;-84
2023/03/30 12:25:25;;;;;;;6.50;2.70;;;16.10;76.60;;;;;;4973012;28;20447;-82
2023/03/30 12:28:03;;;;;;;9.43;2.80;;;16.10;76.40;;;;;;4975851;28;20951;-83
2023/03/30 12:30:42;;;;;;;8.37;2.30;;;16.10;76.40;;;;;;4977494;28;20802;-81
2023/03/30 12:33:12;;;;;;;8.37;2.77;;;16.20;76.40;;;;;;4988005;28;20537;-85
2023/03/30 12:35:53;;;;;;;6.80;2.40;;;16.20;76.10;;;;;;4975053;28;20451;-83
2023/03/30 12:38:24;;;;;;;7.90;2.50;;;16.30;76.00;;;;;;4971144;28;20550;-86
2023/03/30 12:41:13;;;;;;;10.37;2.63;;;16.30;75.70;;;;;;4986714;28;20876;-84
2023/03/30 12:44:20;;;;;;;6.57;2.53;;;16.30;75.40;;;;;;4975905;28;20616;-82
2023/03/30 12:46:58;;;;;;;7.27;2.73;;;16.30;75.30;;;;;;4987958;28;20827;-83
2023/03/30 12:49:43;;;;;;;11.10;2.67;;;16.40;75.00;;;;;;4971854;28;20560;-83
2023/03/30 12:52:16;;;;;;;10.10;2.53;;;16.40;75.10;;;;;;4976557;28;20466;-84
2023/03/30 12:54:59;;;;;;;8.17;2.73;;;16.40;75.00;;;;;;4977405;28;20495;-81
2023/03/30 12:57:38;;;;;;;6.87;2.60;;;16.50;74.60;;;;;;4971406;28;20474;-81
2023/03/30 13:00:31;;;;;;;8.83;2.27;;;16.60;74.40;;;;;;4972036;28;20462;-80
2023/03/30 13:03:33;;;;;;;6.50;2.10;;;16.60;74.20;;;;;;4969183;28;20470;-81
2023/03/30 13:06:02;;;;;;;6.33;2.17;;;16.60;73.80;;;;;;4981754;28;20463;-80
2023/03/30 13:08:35;;;;;;;13.97;2.80;;;16.60;73.80;;;;;;4970180;28;20545;-81
2023/03/30 13:11:15;;;;;;;9.63;2.93;;;16.70;73.70;;;;;;4974291;28;21117;-85
2023/03/30 13:13:51;;;;;;;7.83;2.60;;;16.70;73.50;;;;;;4973078;28;20518;-84
2023/03/30 13:17:05;;;;;;;6.70;2.03;;;16.60;73.10;;;;;;4977722;28;20473;-82
2023/03/30 13:19:50;;;;;;;8.07;2.30;;;16.70;72.90;;;;;;4997218;28;20472;-83
2023/03/30 13:22:28;;;;;;;5.53;2.03;;;16.60;72.80;;;;;;4969939;28;20477;-80
2023/03/30 13:25:00;;;;;;;6.63;1.77;;;16.60;72.40;;;;;;4988405;28;20467;-81
2023/03/30 13:27:31;;;;;;;10.63;2.20;;;16.50;72.00;;;;;;4967596;28;20456;-82
2023/03/30 13:30:02;;;;;;;9.53;1.73;;;16.50;71.80;;;;;;4969519;28;20525;-81